Aviation Digital Data Service (ADDS)

Output produced by METARs form (1700 UTC 20 January 2019)
found at http://www.aviationweather.gov/metar/data/
 
TAF SCFA 201023Z 2012/2112 08004KT 9999 SCT010 SCT026 TX21/2017Z TN17/2106Z 
     BECMG 2015/2017 22015KT SCT028 
     BECMG 2022/2100 SCT009 
     BECMG 2103/2105 18005KT BKN015 
     BECMG 2108/2110 04004KT BKN020
       
TAF COR SCAR 201113Z 2012/2112 02004KT 9999 SCT080 TX26/2017Z TN21/2106Z 
     BECMG 2013/2015 CAVOK 
     BECMG 2016/2018 22012KT 
     BECMG 2022/2100 18004KT 
     BECMG 2104/2106 34004KT BKN100 
     BECMG 2108/2110 02004KT CAVOK
       
TAF SCBA 201044Z 2012/2112 32015KT CAVOK TX19/2018Z TN02/2110Z 
     BECMG 2014/2016 31025G35KT BKN090 
     BECMG 2016/2018 8000 -RA BKN015 OVC040 
     BECMG 2022/2024 9999 NSW SCT035 
     BECMG 2102/2104 30012KT
       
TAF SCCF 201023Z 2012/2112 09014KT CAVOK TX27/2018Z TN10/2110Z 
     BECMG 2014/2015 27006KT 
     BECMG 2016/2018 27022KT 
     BECMG 2101/2103 25012KT 
     BECMG 2104/2106 11012KT
       
TAF SCIE 201014Z 2012/2112 02004KT 9999 BKN010 TX19/2019Z TN13/2111Z 
     TEMPO 2012/2015 21004KT 4000 BR BKN005 OVC020 
     BECMG 2016/2018 23008KT CAVOK 
     BECMG 2101/2103 20006KT FEW005 SCT010 
     TEMPO 2106/2112 16004KT CAVOK
       
TAF COR SCAT 201121Z 2012/2112 25004KT 9999 OVC009 TX23/2018Z TN16/2106Z 
     BECMG 2013/2014 OVC013 
     BECMG 2016/2018 27011KT CAVOK 
     BECMG 2022/2100 23005KT BKN015 
     BECMG 2104/2106 33004KT
       
TAF SCCY 201044Z 2012/2024 07007KT CAVOK TN13/2012Z TX18/2018Z 
     BECMG 2014/2016 03012KT 9999 BKN030 BKN070 
     BECMG 2015/2017 8000 -RA BKN015 OVC040
       
TAF SCDA 201023Z 2012/2112 18004KT CAVOK TX26/2017Z TN21/2106Z 
     BECMG 2016/2018 21017KT 
     BECMG 2101/2103 18007KT 
     BECMG 2108/2110 14004KT SCT030
       
TAF SCSE 201012Z 2012/2112 29004KT 9999 FEW010 TX21/2019Z TN13/2111Z 
     TEMPO 2012/2014 11004KT BKN005 OVC020 
     BECMG 2015/2017 28008KT 
     BECMG 2018/2020 29012KT CAVOK 
     BECMG 2101/2103 29004KT FEW010 
     TEMPO 2106/ 2112 11004KT SCT005 BKN020
       
TAF SCJO 201042Z 2012/2024 VRB02KT 9999 OVC006 TN12/2012Z TX22/2018Z 
     BECMG 2014/2016 28007KT NSW BKN010 
     BECMG 2018/2020 BKN015 
     BECMG 2022/2024 8000 -RA BKN014 OVC020
       
TAF SCTE 201042Z 2012/2112 VRB02KT 3000 DZ OVC006 TX20/2019Z TN09/2110Z 
     BECMG 2014/2016 35005KT 9999 NSW OVC010 
     BECMG 2016/2018 29005KT BKN015 
     BECMG 2022/2024 01005KT 7000 -RA BKN010 OVC050
       
TAF SCNT 201113Z 2012/2100 VRB04KT 9999 SCT015 TN10/2012Z TX16/2018Z 
     BECMG 2012/2014 25007KT SCT040 
     PROB30 
     TEMPO 2015/2019 28015KT 9000 -SHRA FEW015 BKN035
       
TAF SCCI 201038Z 2012/2112 27015KT 9999 FEW045 TN04/2110Z TX15/2018Z 
     PROB30 
     TEMPO 2012/2018 VRB04KT 9000 -SHRA FEW015 BKN035 
     BECMG 2100/2102 30017KT SCT038 
     PROB40 
     TEMPO 2103/2106 34025KT 
     TEMPO 2109/2112 8000 -SHRA SCT022 BKN030
       
TAF SCEL 201013Z 2012/2112 17004KT 7000 NSC TX29/2019Z TN12/2111Z 
     TEMPO 2012/2014 VRB02KT 3000 BR SCT005 SCT012 
     BECMG 2014/2016 19008KT CAVOK 
     BECMG 2019/2021 20012KT 
     BECMG 2101/2103 17004KT 
     TEMPO 2106/ 2112 VRB02KT 7000 NSC